sensor_id;sensor_type;location;lat;lon;timestamp;P1;durP1;ratioP1;P2;durP2;ratioP2
60078;SDS011;45951;45.824;8.824;2024-03-07T00:00:57;2.60;;;1.97;;
60078;SDS011;45951;45.824;8.824;2024-03-07T00:02:43;4.72;;;2.45;;
60078;SDS011;45951;45.824;8.824;2024-03-07T00:04:23;2.78;;;2.00;;
60078;SDS011;45951;45.824;8.824;2024-03-07T00:06:04;3.92;;;2.15;;
60078;SDS011;45951;45.824;8.824;2024-03-07T00:07:45;3.42;;;2.10;;
60078;SDS011;45951;45.824;8.824;2024-03-07T00:09:25;3.50;;;2.28;;
60078;SDS011;45951;45.824;8.824;2024-03-07T00:11:05;4.53;;;2.40;;
60078;SDS011;45951;45.824;8.824;2024-03-07T00:12:47;3.88;;;2.22;;
60078;SDS011;45951;45.824;8.824;2024-03-07T00:14:28;3.85;;;2.20;;
60078;SDS011;45951;45.824;8.824;2024-03-07T00:16:08;3.03;;;2.15;;
60078;SDS011;45951;45.824;8.824;2024-03-07T00:17:50;3.67;;;2.03;;
60078;SDS011;45951;45.824;8.824;2024-03-07T00:19:30;4.40;;;2.23;;
60078;SDS011;45951;45.824;8.824;2024-03-07T00:21:11;3.28;;;2.03;;
60078;SDS011;45951;45.824;8.824;2024-03-07T00:22:51;2.43;;;1.60;;
60078;SDS011;45951;45.824;8.824;2024-03-07T00:24:31;3.47;;;2.00;;
60078;SDS011;45951;45.824;8.824;2024-03-07T00:26:11;3.43;;;2.10;;
60078;SDS011;45951;45.824;8.824;2024-03-07T00:27:51;3.00;;;1.75;;
60078;SDS011;45951;45.824;8.824;2024-03-07T00:29:33;4.03;;;1.83;;
60078;SDS011;45951;45.824;8.824;2024-03-07T00:31:17;3.70;;;1.80;;
60078;SDS011;45951;45.824;8.824;2024-03-07T00:32:58;2.35;;;1.55;;
60078;SDS011;45951;45.824;8.824;2024-03-07T00:34:38;4.20;;;1.73;;
60078;SDS011;45951;45.824;8.824;2024-03-07T00:36:19;2.97;;;1.75;;
60078;SDS011;45951;45.824;8.824;2024-03-07T00:38:01;2.58;;;1.80;;
60078;SDS011;45951;45.824;8.824;2024-03-07T00:39:41;3.90;;;2.00;;
60078;SDS011;45951;45.824;8.824;2024-03-07T00:41:22;2.42;;;1.80;;
60078;SDS011;45951;45.824;8.824;2024-03-07T00:43:02;3.47;;;1.90;;
60078;SDS011;45951;45.824;8.824;2024-03-07T00:44:43;3.63;;;1.92;;
60078;SDS011;45951;45.824;8.824;2024-03-07T00:46:23;4.97;;;1.63;;
60078;SDS011;45951;45.824;8.824;2024-03-07T00:48:04;2.30;;;1.67;;
60078;SDS011;45951;45.824;8.824;2024-03-07T00:49:45;2.45;;;1.65;;
60078;SDS011;45951;45.824;8.824;2024-03-07T00:51:26;4.40;;;2.22;;
60078;SDS011;45951;45.824;8.824;2024-03-07T00:53:06;2.83;;;1.77;;
60078;SDS011;45951;45.824;8.824;2024-03-07T00:54:46;3.80;;;1.90;;
60078;SDS011;45951;45.824;8.824;2024-03-07T00:56:27;2.83;;;1.70;;
60078;SDS011;45951;45.824;8.824;2024-03-07T00:58:08;2.97;;;1.70;;
60078;SDS011;45951;45.824;8.824;2024-03-07T00:59:48;3.28;;;1.92;;
60078;SDS011;45951;45.824;8.824;2024-03-07T01:01:29;1.90;;;1.45;;
60078;SDS011;45951;45.824;8.824;2024-03-07T01:03:09;4.17;;;2.00;;
60078;SDS011;45951;45.824;8.824;2024-03-07T01:04:53;3.42;;;2.00;;
60078;SDS011;45951;45.824;8.824;2024-03-07T01:06:34;3.40;;;1.70;;
60078;SDS011;45951;45.824;8.824;2024-03-07T01:08:16;2.95;;;1.63;;
60078;SDS011;45951;45.824;8.824;2024-03-07T01:09:56;3.60;;;1.80;;
60078;SDS011;45951;45.824;8.824;2024-03-07T01:11:42;2.53;;;1.60;;
60078;SDS011;45951;45.824;8.824;2024-03-07T01:13:22;2.20;;;1.67;;
60078;SDS011;45951;45.824;8.824;2024-03-07T01:15:04;3.63;;;1.85;;
60078;SDS011;45951;45.824;8.824;2024-03-07T01:16:44;3.35;;;1.52;;
60078;SDS011;45951;45.824;8.824;2024-03-07T01:18:24;3.60;;;1.80;;
60078;SDS011;45951;45.824;8.824;2024-03-07T01:20:05;3.57;;;1.93;;
60078;SDS011;45951;45.824;8.824;2024-03-07T01:21:45;2.60;;;1.58;;
60078;SDS011;45951;45.824;8.824;2024-03-07T01:23:25;2.97;;;1.70;;
60078;SDS011;45951;45.824;8.824;2024-03-07T01:25:05;3.90;;;1.90;;
60078;SDS011;45951;45.824;8.824;2024-03-07T01:26:46;3.13;;;1.70;;
60078;SDS011;45951;45.824;8.824;2024-03-07T01:28:27;3.45;;;1.70;;
60078;SDS011;45951;45.824;8.824;2024-03-07T01:30:10;3.13;;;1.73;;
60078;SDS011;45951;45.824;8.824;2024-03-07T01:31:50;2.28;;;1.40;;
60078;SDS011;45951;45.824;8.824;2024-03-07T01:33:30;2.33;;;1.50;;
60078;SDS011;45951;45.824;8.824;2024-03-07T01:35:11;2.42;;;1.60;;
60078;SDS011;45951;45.824;8.824;2024-03-07T01:36:52;3.20;;;1.80;;
60078;SDS011;45951;45.824;8.824;2024-03-07T01:38:32;3.55;;;1.77;;
60078;SDS011;45951;45.824;8.824;2024-03-07T01:40:12;2.23;;;1.50;;
60078;SDS011;45951;45.824;8.824;2024-03-07T01:41:54;3.85;;;1.75;;
60078;SDS011;45951;45.824;8.824;2024-03-07T01:43:34;2.28;;;1.52;;
60078;SDS011;45951;45.824;8.824;2024-03-07T01:45:14;3.25;;;1.73;;
60078;SDS011;45951;45.824;8.824;2024-03-07T01:46:54;4.60;;;2.00;;
60078;SDS011;45951;45.824;8.824;2024-03-07T01:48:35;4.20;;;1.80;;
60078;SDS011;45951;45.824;8.824;2024-03-07T01:50:15;3.90;;;1.80;;
60078;SDS011;45951;45.824;8.824;2024-03-07T01:51:57;2.78;;;1.60;;
60078;SDS011;45951;45.824;8.824;2024-03-07T01:53:38;2.80;;;1.63;;
60078;SDS011;45951;45.824;8.824;2024-03-07T01:55:18;3.38;;;1.63;;
60078;SDS011;45951;45.824;8.824;2024-03-07T01:56:59;3.00;;;1.83;;
60078;SDS011;45951;45.824;8.824;2024-03-07T01:58:39;4.72;;;1.85;;
60078;SDS011;45951;45.824;8.824;2024-03-07T02:00:20;3.78;;;2.03;;
60078;SDS011;45951;45.824;8.824;2024-03-07T02:02:01;3.87;;;1.80;;
60078;SDS011;45951;45.824;8.824;2024-03-07T02:03:42;3.30;;;1.70;;
60078;SDS011;45951;45.824;8.824;2024-03-07T02:05:22;3.55;;;2.00;;
60078;SDS011;45951;45.824;8.824;2024-03-07T02:07:03;4.90;;;1.83;;
60078;SDS011;45951;45.824;8.824;2024-03-07T02:08:44;3.30;;;1.70;;
60078;SDS011;45951;45.824;8.824;2024-03-07T02:10:24;2.73;;;1.80;;
60078;SDS011;45951;45.824;8.824;2024-03-07T02:12:04;3.20;;;1.50;;
60078;SDS011;45951;45.824;8.824;2024-03-07T02:13:44;2.55;;;1.75;;
60078;SDS011;45951;45.824;8.824;2024-03-07T02:15:24;4.38;;;1.88;;
60078;SDS011;45951;45.824;8.824;2024-03-07T02:17:05;3.60;;;1.85;;
60078;SDS011;45951;45.824;8.824;2024-03-07T02:18:46;3.38;;;1.90;;
60078;SDS011;45951;45.824;8.824;2024-03-07T02:20:26;4.65;;;1.70;;
60078;SDS011;45951;45.824;8.824;2024-03-07T02:22:08;2.67;;;1.60;;
60078;SDS011;45951;45.824;8.824;2024-03-07T02:23:48;2.25;;;1.63;;
60078;SDS011;45951;45.824;8.824;2024-03-07T02:25:28;3.10;;;1.67;;
60078;SDS011;45951;45.824;8.824;2024-03-07T02:27:08;2.67;;;1.70;;
60078;SDS011;45951;45.824;8.824;2024-03-07T02:28:49;3.38;;;1.60;;
60078;SDS011;45951;45.824;8.824;2024-03-07T02:30:30;3.75;;;1.90;;
60078;SDS011;45951;45.824;8.824;2024-03-07T02:32:12;2.70;;;1.50;;
60078;SDS011;45951;45.824;8.824;2024-03-07T02:33:53;2.20;;;1.50;;
60078;SDS011;45951;45.824;8.824;2024-03-07T02:35:33;6.03;;;1.90;;
60078;SDS011;45951;45.824;8.824;2024-03-07T02:37:14;2.75;;;1.70;;
60078;SDS011;45951;45.824;8.824;2024-03-07T02:38:55;3.00;;;1.80;;
60078;SDS011;45951;45.824;8.824;2024-03-07T02:40:35;2.70;;;1.60;;
60078;SDS011;45951;45.824;8.824;2024-03-07T02:42:15;2.03;;;1.63;;
60078;SDS011;45951;45.824;8.824;2024-03-07T02:43:55;3.08;;;1.88;;
60078;SDS011;45951;45.824;8.824;2024-03-07T02:45:36;2.67;;;1.90;;
60078;SDS011;45951;45.824;8.824;2024-03-07T02:47:16;2.57;;;1.70;;
60078;SDS011;45951;45.824;8.824;2024-03-07T02:48:57;2.78;;;1.77;;
60078;SDS011;45951;45.824;8.824;2024-03-07T02:50:38;4.18;;;1.83;;
60078;SDS011;45951;45.824;8.824;2024-03-07T02:52:18;5.13;;;1.90;;
60078;SDS011;45951;45.824;8.824;2024-03-07T02:53:58;2.30;;;1.70;;
60078;SDS011;45951;45.824;8.824;2024-03-07T02:55:38;2.53;;;1.53;;
60078;SDS011;45951;45.824;8.824;2024-03-07T02:57:19;3.30;;;1.70;;
60078;SDS011;45951;45.824;8.824;2024-03-07T02:58:59;2.97;;;1.77;;
60078;SDS011;45951;45.824;8.824;2024-03-07T03:00:39;2.37;;;1.50;;
60078;SDS011;45951;45.824;8.824;2024-03-07T03:02:19;3.43;;;1.70;;
60078;SDS011;45951;45.824;8.824;2024-03-07T03:04:00;2.28;;;1.52;;
60078;SDS011;45951;45.824;8.824;2024-03-07T03:05:40;1.40;;;1.30;;
60078;SDS011;45951;45.824;8.824;2024-03-07T03:07:20;2.17;;;1.70;;
60078;SDS011;45951;45.824;8.824;2024-03-07T03:09:00;2.80;;;1.57;;
60078;SDS011;45951;45.824;8.824;2024-03-07T03:10:41;2.03;;;1.45;;
60078;SDS011;45951;45.824;8.824;2024-03-07T03:12:21;2.70;;;1.50;;
60078;SDS011;45951;45.824;8.824;2024-03-07T03:14:02;2.00;;;1.27;;
60078;SDS011;45951;45.824;8.824;2024-03-07T03:15:43;1.73;;;1.30;;
60078;SDS011;45951;45.824;8.824;2024-03-07T03:17:24;1.93;;;1.40;;
60078;SDS011;45951;45.824;8.824;2024-03-07T03:19:04;2.10;;;1.33;;
60078;SDS011;45951;45.824;8.824;2024-03-07T03:20:44;2.45;;;1.40;;
60078;SDS011;45951;45.824;8.824;2024-03-07T03:22:27;2.15;;;1.40;;
60078;SDS011;45951;45.824;8.824;2024-03-07T03:24:07;1.47;;;1.27;;
60078;SDS011;45951;45.824;8.824;2024-03-07T03:25:48;2.75;;;1.50;;
60078;SDS011;45951;45.824;8.824;2024-03-07T03:27:28;2.20;;;1.33;;
60078;SDS011;45951;45.824;8.824;2024-03-07T03:29:09;2.10;;;1.33;;
60078;SDS011;45951;45.824;8.824;2024-03-07T03:30:51;2.55;;;1.50;;
60078;SDS011;45951;45.824;8.824;2024-03-07T03:32:33;2.03;;;1.20;;
60078;SDS011;45951;45.824;8.824;2024-03-07T03:34:13;3.20;;;1.37;;
60078;SDS011;45951;45.824;8.824;2024-03-07T03:35:53;1.73;;;1.30;;
60078;SDS011;45951;45.824;8.824;2024-03-07T03:37:35;2.53;;;1.40;;
60078;SDS011;45951;45.824;8.824;2024-03-07T03:39:15;2.83;;;1.30;;
60078;SDS011;45951;45.824;8.824;2024-03-07T03:40:55;2.08;;;1.40;;
60078;SDS011;45951;45.824;8.824;2024-03-07T03:42:36;1.90;;;1.20;;
60078;SDS011;45951;45.824;8.824;2024-03-07T03:44:17;3.15;;;1.60;;
60078;SDS011;45951;45.824;8.824;2024-03-07T03:45:58;1.52;;;1.20;;
60078;SDS011;45951;45.824;8.824;2024-03-07T03:47:38;2.60;;;1.20;;
60078;SDS011;45951;45.824;8.824;2024-03-07T03:49:18;1.80;;;1.13;;
60078;SDS011;45951;45.824;8.824;2024-03-07T03:50:58;1.90;;;1.20;;
60078;SDS011;45951;45.824;8.824;2024-03-07T03:52:39;2.07;;;1.40;;
60078;SDS011;45951;45.824;8.824;2024-03-07T03:54:19;2.92;;;1.40;;
60078;SDS011;45951;45.824;8.824;2024-03-07T03:56:00;1.70;;;1.30;;
60078;SDS011;45951;45.824;8.824;2024-03-07T03:57:41;2.22;;;1.40;;
60078;SDS011;45951;45.824;8.824;2024-03-07T03:59:21;2.15;;;1.23;;
60078;SDS011;45951;45.824;8.824;2024-03-07T04:01:02;1.75;;;1.20;;
60078;SDS011;45951;45.824;8.824;2024-03-07T04:02:43;1.70;;;1.10;;
60078;SDS011;45951;45.824;8.824;2024-03-07T04:04:23;1.80;;;1.00;;
60078;SDS011;45951;45.824;8.824;2024-03-07T04:06:05;2.45;;;1.23;;
60078;SDS011;45951;45.824;8.824;2024-03-07T04:07:47;1.60;;;1.20;;
60078;SDS011;45951;45.824;8.824;2024-03-07T04:09:27;1.17;;;1.00;;
60078;SDS011;45951;45.824;8.824;2024-03-07T04:11:08;1.63;;;0.80;;
60078;SDS011;45951;45.824;8.824;2024-03-07T04:12:49;2.55;;;1.20;;
60078;SDS011;45951;45.824;8.824;2024-03-07T04:14:30;2.00;;;1.27;;
60078;SDS011;45951;45.824;8.824;2024-03-07T04:16:13;1.65;;;1.00;;
60078;SDS011;45951;45.824;8.824;2024-03-07T04:17:54;1.90;;;1.40;;
60078;SDS011;45951;45.824;8.824;2024-03-07T04:19:34;1.35;;;1.15;;
60078;SDS011;45951;45.824;8.824;2024-03-07T04:21:15;3.92;;;1.40;;
60078;SDS011;45951;45.824;8.824;2024-03-07T04:22:55;1.87;;;1.37;;
60078;SDS011;45951;45.824;8.824;2024-03-07T04:24:35;2.35;;;1.55;;
60078;SDS011;45951;45.824;8.824;2024-03-07T04:26:16;2.58;;;1.27;;
60078;SDS011;45951;45.824;8.824;2024-03-07T04:27:56;3.30;;;1.60;;
60078;SDS011;45951;45.824;8.824;2024-03-07T04:29:36;2.53;;;1.77;;
60078;SDS011;45951;45.824;8.824;2024-03-07T04:31:16;1.90;;;1.40;;
60078;SDS011;45951;45.824;8.824;2024-03-07T04:32:57;3.35;;;1.42;;
60078;SDS011;45951;45.824;8.824;2024-03-07T04:34:38;2.25;;;1.50;;
60078;SDS011;45951;45.824;8.824;2024-03-07T04:36:19;3.80;;;1.48;;
60078;SDS011;45951;45.824;8.824;2024-03-07T04:37:59;2.50;;;1.42;;
60078;SDS011;45951;45.824;8.824;2024-03-07T04:39:40;3.72;;;1.45;;
60078;SDS011;45951;45.824;8.824;2024-03-07T04:41:20;2.90;;;2.10;;
60078;SDS011;45951;45.824;8.824;2024-03-07T04:43:00;2.15;;;1.23;;
60078;SDS011;45951;45.824;8.824;2024-03-07T04:44:40;2.67;;;1.00;;
60078;SDS011;45951;45.824;8.824;2024-03-07T04:46:21;1.50;;;1.00;;
60078;SDS011;45951;45.824;8.824;2024-03-07T04:48:01;1.20;;;1.10;;
60078;SDS011;45951;45.824;8.824;2024-03-07T04:49:42;1.23;;;1.00;;
60078;SDS011;45951;45.824;8.824;2024-03-07T04:51:23;0.70;;;0.70;;
60078;SDS011;45951;45.824;8.824;2024-03-07T04:53:03;1.40;;;0.90;;
60078;SDS011;45951;45.824;8.824;2024-03-07T04:54:43;1.42;;;0.98;;
60078;SDS011;45951;45.824;8.824;2024-03-07T04:56:24;1.40;;;1.00;;
60078;SDS011;45951;45.824;8.824;2024-03-07T04:58:04;1.53;;;1.07;;
60078;SDS011;45951;45.824;8.824;2024-03-07T04:59:44;3.60;;;1.30;;
60078;SDS011;45951;45.824;8.824;2024-03-07T05:01:24;2.72;;;1.17;;
60078;SDS011;45951;45.824;8.824;2024-03-07T05:03:05;1.13;;;0.95;;
60078;SDS011;45951;45.824;8.824;2024-03-07T05:04:45;1.00;;;1.00;;
60078;SDS011;45951;45.824;8.824;2024-03-07T05:06:25;1.20;;;0.87;;
60078;SDS011;45951;45.824;8.824;2024-03-07T05:08:05;1.90;;;1.17;;
60078;SDS011;45951;45.824;8.824;2024-03-07T05:09:45;0.90;;;0.80;;
60078;SDS011;45951;45.824;8.824;2024-03-07T05:11:26;2.80;;;1.40;;
60078;SDS011;45951;45.824;8.824;2024-03-07T05:13:06;1.23;;;1.00;;
60078;SDS011;45951;45.824;8.824;2024-03-07T05:14:46;1.33;;;1.07;;
60078;SDS011;45951;45.824;8.824;2024-03-07T05:16:27;1.00;;;0.67;;
60078;SDS011;45951;45.824;8.824;2024-03-07T05:18:07;1.40;;;0.98;;
60078;SDS011;45951;45.824;8.824;2024-03-07T05:19:47;0.77;;;0.70;;
60078;SDS011;45951;45.824;8.824;2024-03-07T05:21:29;0.60;;;0.60;;
60078;SDS011;45951;45.824;8.824;2024-03-07T05:23:20;0.60;;;0.60;;
60078;SDS011;45951;45.824;8.824;2024-03-07T05:25:00;0.63;;;0.60;;
60078;SDS011;45951;45.824;8.824;2024-03-07T05:26:41;1.30;;;0.80;;
60078;SDS011;45951;45.824;8.824;2024-03-07T05:28:21;1.40;;;0.90;;
60078;SDS011;45951;45.824;8.824;2024-03-07T05:30:03;0.50;;;0.50;;
60078;SDS011;45951;45.824;8.824;2024-03-07T05:31:45;0.60;;;0.60;;
60078;SDS011;45951;45.824;8.824;2024-03-07T05:33:28;1.35;;;0.98;;
60078;SDS011;45951;45.824;8.824;2024-03-07T05:35:09;1.13;;;0.80;;
60078;SDS011;45951;45.824;8.824;2024-03-07T05:36:51;2.75;;;1.40;;
60078;SDS011;45951;45.824;8.824;2024-03-07T05:38:31;0.90;;;0.73;;
60078;SDS011;45951;45.824;8.824;2024-03-07T05:40:11;1.47;;;0.90;;
60078;SDS011;45951;45.824;8.824;2024-03-07T05:41:51;1.43;;;0.90;;
60078;SDS011;45951;45.824;8.824;2024-03-07T05:43:31;1.57;;;1.00;;
60078;SDS011;45951;45.824;8.824;2024-03-07T05:45:12;2.70;;;0.82;;
60078;SDS011;45951;45.824;8.824;2024-03-07T05:46:57;1.20;;;0.60;;
60078;SDS011;45951;45.824;8.824;2024-03-07T05:48:38;4.20;;;1.27;;
60078;SDS011;45951;45.824;8.824;2024-03-07T05:50:18;0.80;;;0.80;;
60078;SDS011;45951;45.824;8.824;2024-03-07T05:51:58;1.00;;;0.77;;
60078;SDS011;45951;45.824;8.824;2024-03-07T05:53:38;1.65;;;0.73;;
60078;SDS011;45951;45.824;8.824;2024-03-07T05:55:20;1.55;;;0.70;;
60078;SDS011;45951;45.824;8.824;2024-03-07T05:57:02;1.55;;;0.80;;
60078;SDS011;45951;45.824;8.824;2024-03-07T05:58:42;0.60;;;0.60;;
60078;SDS011;45951;45.824;8.824;2024-03-07T06:00:22;1.15;;;0.82;;
60078;SDS011;45951;45.824;8.824;2024-03-07T06:02:07;1.33;;;0.60;;
60078;SDS011;45951;45.824;8.824;2024-03-07T06:03:47;3.70;;;0.90;;
60078;SDS011;45951;45.824;8.824;2024-03-07T06:05:28;1.25;;;0.70;;
60078;SDS011;45951;45.824;8.824;2024-03-07T06:07:08;1.93;;;0.83;;
60078;SDS011;45951;45.824;8.824;2024-03-07T06:08:50;1.13;;;0.95;;
60078;SDS011;45951;45.824;8.824;2024-03-07T06:10:31;2.92;;;1.20;;
60078;SDS011;45951;45.824;8.824;2024-03-07T06:12:11;1.70;;;0.80;;
60078;SDS011;45951;45.824;8.824;2024-03-07T06:13:51;0.95;;;0.80;;
60078;SDS011;45951;45.824;8.824;2024-03-07T06:15:31;1.98;;;1.45;;
60078;SDS011;45951;45.824;8.824;2024-03-07T06:17:12;1.52;;;1.20;;
60078;SDS011;45951;45.824;8.824;2024-03-07T06:18:52;2.00;;;1.10;;
60078;SDS011;45951;45.824;8.824;2024-03-07T06:20:32;1.20;;;0.93;;
60078;SDS011;45951;45.824;8.824;2024-03-07T06:22:12;1.77;;;0.90;;
60078;SDS011;45951;45.824;8.824;2024-03-07T06:23:53;2.13;;;0.80;;
60078;SDS011;45951;45.824;8.824;2024-03-07T06:25:39;2.75;;;1.00;;
60078;SDS011;45951;45.824;8.824;2024-03-07T06:27:31;1.08;;;0.60;;
60078;SDS011;45951;45.824;8.824;2024-03-07T06:29:17;0.90;;;0.80;;
60078;SDS011;45951;45.824;8.824;2024-03-07T06:30:58;1.58;;;1.00;;
60078;SDS011;45951;45.824;8.824;2024-03-07T06:32:38;1.90;;;1.40;;
60078;SDS011;45951;45.824;8.824;2024-03-07T06:34:19;3.33;;;1.17;;
60078;SDS011;45951;45.824;8.824;2024-03-07T06:35:59;1.13;;;0.90;;
60078;SDS011;45951;45.824;8.824;2024-03-07T06:37:41;1.33;;;0.88;;
60078;SDS011;45951;45.824;8.824;2024-03-07T06:39:21;0.77;;;0.57;;
60078;SDS011;45951;45.824;8.824;2024-03-07T06:41:02;0.95;;;0.80;;
60078;SDS011;45951;45.824;8.824;2024-03-07T06:42:42;0.73;;;0.60;;
60078;SDS011;45951;45.824;8.824;2024-03-07T06:44:22;2.07;;;1.10;;
60078;SDS011;45951;45.824;8.824;2024-03-07T06:46:03;1.10;;;0.77;;
60078;SDS011;45951;45.824;8.824;2024-03-07T06:47:43;1.30;;;1.00;;
60078;SDS011;45951;45.824;8.824;2024-03-07T06:49:23;0.67;;;0.60;;
60078;SDS011;45951;45.824;8.824;2024-03-07T06:51:04;2.40;;;0.90;;
60078;SDS011;45951;45.824;8.824;2024-03-07T06:52:45;1.42;;;1.17;;
60078;SDS011;45951;45.824;8.824;2024-03-07T06:54:27;2.25;;;1.40;;
60078;SDS011;45951;45.824;8.824;2024-03-07T06:56:07;2.13;;;1.30;;
60078;SDS011;45951;45.824;8.824;2024-03-07T06:57:47;1.77;;;1.10;;
60078;SDS011;45951;45.824;8.824;2024-03-07T06:59:27;1.45;;;1.15;;
60078;SDS011;45951;45.824;8.824;2024-03-07T07:01:08;2.20;;;1.20;;
60078;SDS011;45951;45.824;8.824;2024-03-07T07:02:50;1.38;;;1.10;;
60078;SDS011;45951;45.824;8.824;2024-03-07T07:04:30;0.98;;;0.93;;
60078;SDS011;45951;45.824;8.824;2024-03-07T07:06:21;0.80;;;0.68;;
60078;SDS011;45951;45.824;8.824;2024-03-07T07:08:01;1.08;;;0.85;;
60078;SDS011;45951;45.824;8.824;2024-03-07T07:09:41;1.48;;;0.68;;
60078;SDS011;45951;45.824;8.824;2024-03-07T07:11:22;1.53;;;0.93;;
60078;SDS011;45951;45.824;8.824;2024-03-07T07:13:02;1.63;;;0.90;;
60078;SDS011;45951;45.824;8.824;2024-03-07T07:14:44;4.22;;;1.00;;
60078;SDS011;45951;45.824;8.824;2024-03-07T07:16:24;1.40;;;0.82;;
60078;SDS011;45951;45.824;8.824;2024-03-07T07:18:05;2.38;;;1.33;;
60078;SDS011;45951;45.824;8.824;2024-03-07T07:19:47;2.13;;;0.88;;
60078;SDS011;45951;45.824;8.824;2024-03-07T07:21:27;2.80;;;1.23;;
60078;SDS011;45951;45.824;8.824;2024-03-07T07:23:07;1.13;;;0.87;;
60078;SDS011;45951;45.824;8.824;2024-03-07T07:24:47;1.77;;;0.87;;
60078;SDS011;45951;45.824;8.824;2024-03-07T07:26:28;0.52;;;0.52;;
60078;SDS011;45951;45.824;8.824;2024-03-07T07:28:08;3.50;;;0.93;;
60078;SDS011;45951;45.824;8.824;2024-03-07T07:29:51;2.63;;;1.15;;
60078;SDS011;45951;45.824;8.824;2024-03-07T07:31:31;0.68;;;0.68;;
60078;SDS011;45951;45.824;8.824;2024-03-07T07:33:12;1.60;;;0.70;;
60078;SDS011;45951;45.824;8.824;2024-03-07T07:34:53;3.90;;;1.10;;
60078;SDS011;45951;45.824;8.824;2024-03-07T07:36:34;1.40;;;0.85;;
60078;SDS011;45951;45.824;8.824;2024-03-07T07:38:14;3.17;;;1.05;;
60078;SDS011;45951;45.824;8.824;2024-03-07T07:39:54;1.00;;;0.70;;
60078;SDS011;45951;45.824;8.824;2024-03-07T07:41:35;2.30;;;1.17;;
60078;SDS011;45951;45.824;8.824;2024-03-07T07:43:16;1.40;;;0.90;;
60078;SDS011;45951;45.824;8.824;2024-03-07T07:44:56;3.00;;;1.10;;
60078;SDS011;45951;45.824;8.824;2024-03-07T07:46:37;1.47;;;0.90;;
60078;SDS011;45951;45.824;8.824;2024-03-07T07:48:17;1.23;;;0.90;;
60078;SDS011;45951;45.824;8.824;2024-03-07T07:49:59;1.85;;;0.93;;
60078;SDS011;45951;45.824;8.824;2024-03-07T07:51:39;1.17;;;1.00;;
60078;SDS011;45951;45.824;8.824;2024-03-07T07:53:19;2.13;;;1.13;;
60078;SDS011;45951;45.824;8.824;2024-03-07T07:54:59;1.67;;;1.30;;
60078;SDS011;45951;45.824;8.824;2024-03-07T07:56:40;2.07;;;1.27;;
60078;SDS011;45951;45.824;8.824;2024-03-07T07:58:20;1.70;;;1.13;;
60078;SDS011;45951;45.824;8.824;2024-03-07T08:00:00;2.13;;;1.20;;
60078;SDS011;45951;45.824;8.824;2024-03-07T08:01:40;4.00;;;1.48;;
60078;SDS011;45951;45.824;8.824;2024-03-07T08:03:20;2.10;;;1.20;;
60078;SDS011;45951;45.824;8.824;2024-03-07T08:05:02;2.10;;;1.17;;
60078;SDS011;45951;45.824;8.824;2024-03-07T08:06:45;3.40;;;1.85;;
60078;SDS011;45951;45.824;8.824;2024-03-07T08:08:25;2.15;;;1.23;;
60078;SDS011;45951;45.824;8.824;2024-03-07T08:10:05;0.90;;;0.83;;
60078;SDS011;45951;45.824;8.824;2024-03-07T08:11:46;1.45;;;0.80;;
60078;SDS011;45951;45.824;8.824;2024-03-07T08:13:26;1.50;;;1.10;;
60078;SDS011;45951;45.824;8.824;2024-03-07T08:15:06;2.40;;;1.17;;
60078;SDS011;45951;45.824;8.824;2024-03-07T08:16:50;2.83;;;1.40;;
60078;SDS011;45951;45.824;8.824;2024-03-07T08:18:31;4.50;;;2.60;;
60078;SDS011;45951;45.824;8.824;2024-03-07T08:20:12;5.55;;;3.53;;
60078;SDS011;45951;45.824;8.824;2024-03-07T08:21:52;7.15;;;3.85;;
60078;SDS011;45951;45.824;8.824;2024-03-07T08:23:32;4.73;;;3.60;;
60078;SDS011;45951;45.824;8.824;2024-03-07T08:25:13;5.82;;;3.28;;
60078;SDS011;45951;45.824;8.824;2024-03-07T08:26:54;5.55;;;3.58;;
60078;SDS011;45951;45.824;8.824;2024-03-07T08:28:34;8.13;;;4.10;;
60078;SDS011;45951;45.824;8.824;2024-03-07T08:30:14;6.43;;;3.70;;
60078;SDS011;45951;45.824;8.824;2024-03-07T08:31:55;5.35;;;3.55;;
60078;SDS011;45951;45.824;8.824;2024-03-07T08:33:35;6.60;;;3.97;;
60078;SDS011;45951;45.824;8.824;2024-03-07T08:35:15;5.33;;;3.40;;
60078;SDS011;45951;45.824;8.824;2024-03-07T08:36:56;6.05;;;3.50;;
60078;SDS011;45951;45.824;8.824;2024-03-07T08:38:36;5.07;;;3.10;;
60078;SDS011;45951;45.824;8.824;2024-03-07T08:40:17;5.28;;;3.20;;
60078;SDS011;45951;45.824;8.824;2024-03-07T08:42:00;5.25;;;3.35;;
60078;SDS011;45951;45.824;8.824;2024-03-07T08:43:40;4.47;;;3.27;;
60078;SDS011;45951;45.824;8.824;2024-03-07T08:45:21;6.78;;;3.60;;
60078;SDS011;45951;45.824;8.824;2024-03-07T08:47:01;4.78;;;3.10;;
60078;SDS011;45951;45.824;8.824;2024-03-07T08:48:42;5.10;;;3.10;;
60078;SDS011;45951;45.824;8.824;2024-03-07T08:50:22;5.80;;;2.77;;
60078;SDS011;45951;45.824;8.824;2024-03-07T08:52:03;4.15;;;2.90;;
60078;SDS011;45951;45.824;8.824;2024-03-07T08:53:43;5.22;;;2.97;;
60078;SDS011;45951;45.824;8.824;2024-03-07T08:55:24;6.53;;;2.90;;
60078;SDS011;45951;45.824;8.824;2024-03-07T08:57:07;4.88;;;3.00;;
60078;SDS011;45951;45.824;8.824;2024-03-07T08:58:48;7.03;;;3.15;;
60078;SDS011;45951;45.824;8.824;2024-03-07T09:00:28;5.85;;;3.08;;
60078;SDS011;45951;45.824;8.824;2024-03-07T09:02:08;5.30;;;3.03;;
60078;SDS011;45951;45.824;8.824;2024-03-07T09:03:48;4.93;;;3.10;;
60078;SDS011;45951;45.824;8.824;2024-03-07T09:05:29;5.83;;;3.20;;
60078;SDS011;45951;45.824;8.824;2024-03-07T09:07:09;5.93;;;3.10;;
60078;SDS011;45951;45.824;8.824;2024-03-07T09:08:49;7.18;;;3.60;;
60078;SDS011;45951;45.824;8.824;2024-03-07T09:10:30;4.60;;;3.00;;
60078;SDS011;45951;45.824;8.824;2024-03-07T09:12:10;4.28;;;2.70;;
60078;SDS011;45951;45.824;8.824;2024-03-07T09:13:50;4.50;;;3.00;;
60078;SDS011;45951;45.824;8.824;2024-03-07T09:15:30;5.82;;;3.28;;
60078;SDS011;45951;45.824;8.824;2024-03-07T09:17:13;3.85;;;2.78;;
60078;SDS011;45951;45.824;8.824;2024-03-07T09:18:53;4.83;;;3.07;;
60078;SDS011;45951;45.824;8.824;2024-03-07T09:20:35;4.78;;;2.90;;
60078;SDS011;45951;45.824;8.824;2024-03-07T09:22:16;5.57;;;3.08;;
60078;SDS011;45951;45.824;8.824;2024-03-07T09:23:57;5.40;;;2.80;;
60078;SDS011;45951;45.824;8.824;2024-03-07T09:25:37;5.88;;;2.75;;
60078;SDS011;45951;45.824;8.824;2024-03-07T09:27:17;5.50;;;2.72;;
60078;SDS011;45951;45.824;8.824;2024-03-07T09:28:59;8.45;;;4.35;;
60078;SDS011;45951;45.824;8.824;2024-03-07T09:30:45;4.80;;;2.80;;
60078;SDS011;45951;45.824;8.824;2024-03-07T09:32:26;4.85;;;2.67;;
60078;SDS011;45951;45.824;8.824;2024-03-07T09:34:08;3.20;;;2.38;;
60078;SDS011;45951;45.824;8.824;2024-03-07T09:35:48;3.67;;;2.40;;
60078;SDS011;45951;45.824;8.824;2024-03-07T09:37:28;3.77;;;2.20;;
60078;SDS011;45951;45.824;8.824;2024-03-07T09:39:09;2.35;;;1.70;;
60078;SDS011;45951;45.824;8.824;2024-03-07T09:40:50;5.47;;;2.28;;
60078;SDS011;45951;45.824;8.824;2024-03-07T09:42:30;2.10;;;1.80;;
60078;SDS011;45951;45.824;8.824;2024-03-07T09:44:14;2.92;;;1.60;;
60078;SDS011;45951;45.824;8.824;2024-03-07T09:46:03;2.53;;;1.70;;
60078;SDS011;45951;45.824;8.824;2024-03-07T09:47:44;6.97;;;1.85;;
60078;SDS011;45951;45.824;8.824;2024-03-07T09:49:27;4.75;;;1.73;;
60078;SDS011;45951;45.824;8.824;2024-03-07T09:51:08;4.28;;;1.50;;
60078;SDS011;45951;45.824;8.824;2024-03-07T09:52:51;2.20;;;1.58;;
60078;SDS011;45951;45.824;8.824;2024-03-07T09:54:32;3.60;;;1.92;;
60078;SDS011;45951;45.824;8.824;2024-03-07T09:56:14;2.83;;;1.88;;
60078;SDS011;45951;45.824;8.824;2024-03-07T09:57:58;2.38;;;1.80;;
60078;SDS011;45951;45.824;8.824;2024-03-07T09:59:39;2.85;;;1.90;;
60078;SDS011;45951;45.824;8.824;2024-03-07T10:01:21;2.88;;;1.83;;
60078;SDS011;45951;45.824;8.824;2024-03-07T10:03:02;2.80;;;1.52;;
60078;SDS011;45951;45.824;8.824;2024-03-07T10:04:47;1.95;;;1.58;;
60078;SDS011;45951;45.824;8.824;2024-03-07T10:06:28;2.90;;;1.60;;
60078;SDS011;45951;45.824;8.824;2024-03-07T10:08:09;1.73;;;1.45;;